Time;durP1;ratioP1;P1;durP2;ratioP2;P2;SDS_P1;SDS_P2;PMS_P1;PMS_P2;Temp;Humidity;BMP_temperature;BMP_pressure;BME280_temperature;BME280_humidity;BME280_pressure;Samples;Min_cycle;Max_cycle;Signal;HPM_P1;HPM_P2
2024/03/13 00:00:04;;;;;;;1.60;1.30;;;9.00;98.20;;;;;;6099694;23;20425;-80
2024/03/13 00:02:35;;;;;;;1.50;1.10;;;9.00;98.20;;;;;;6126882;23;20445;-79
2024/03/13 00:05:38;;;;;;;1.70;1.57;;;9.00;98.20;;;;;;6116873;23;20410;-80
2024/03/13 00:08:07;;;;;;;1.50;1.20;;;9.00;98.20;;;;;;6139117;23;20673;-78
2024/03/13 00:10:34;;;;;;;1.50;1.10;;;9.00;98.20;;;;;;6108798;23;20415;-79
2024/03/13 00:13:01;;;;;;;1.57;1.10;;;9.00;98.20;;;;;;6134225;23;20452;-80
2024/03/13 00:15:28;;;;;;;1.53;1.20;;;9.00;98.20;;;;;;6100121;23;20530;-80
2024/03/13 00:17:55;;;;;;;1.50;1.10;;;9.00;98.20;;;;;;6130454;23;20453;-80
2024/03/13 00:20:22;;;;;;;1.77;1.67;;;9.00;98.20;;;;;;6099222;23;20991;-80
2024/03/13 00:22:48;;;;;;;1.50;1.10;;;9.00;98.20;;;;;;6133537;23;20475;-80
2024/03/13 00:25:17;;;;;;;1.50;1.10;;;9.00;98.20;;;;;;6100952;23;20419;-80
2024/03/13 00:27:46;;;;;;;1.50;1.10;;;9.00;98.20;;;;;;6133404;23;20503;-79
2024/03/13 00:30:14;;;;;;;1.57;1.20;;;9.00;98.20;;;;;;6103736;23;20434;-78
2024/03/13 00:32:42;;;;;;;1.53;1.10;;;9.00;98.20;;;;;;6124775;23;20587;-79
2024/03/13 00:35:09;;;;;;;1.50;1.10;;;9.10;98.20;;;;;;6095918;23;20529;-78
2024/03/13 00:37:37;;;;;;;1.53;1.10;;;9.10;98.20;;;;;;6124959;23;20495;-79
2024/03/13 00:40:04;;;;;;;1.50;1.10;;;9.10;98.20;;;;;;6111534;23;20427;-81
2024/03/13 00:45:10;;;;;;;1.50;1.10;;;9.10;98.20;;;;;;6133060;23;20560;-79
2024/03/13 00:47:39;;;;;;;1.50;1.20;;;9.00;98.20;;;;;;6143138;23;20470;-80
2024/03/13 00:50:08;;;;;;;1.50;1.10;;;9.00;98.20;;;;;;6139317;23;20484;-78
2024/03/13 00:52:36;;;;;;;1.50;1.10;;;9.10;98.20;;;;;;6142203;23;20698;-79
2024/03/13 00:55:03;;;;;;;1.50;1.10;;;9.10;98.20;;;;;;6110153;23;20657;-80
2024/03/13 00:57:31;;;;;;;1.50;1.10;;;9.00;98.20;;;;;;6133059;23;20453;-81
2024/03/13 00:59:59;;;;;;;1.50;1.10;;;9.00;98.20;;;;;;6122966;23;20517;-80
2024/03/13 01:02:34;;;;;;;1.53;1.20;;;9.00;98.20;;;;;;6134110;23;20449;-81
2024/03/13 01:05:01;;;;;;;1.50;1.10;;;9.00;98.20;;;;;;6123893;23;20421;-80
2024/03/13 01:07:28;;;;;;;1.53;1.10;;;9.00;98.20;;;;;;6131166;23;20847;-80
2024/03/13 01:09:55;;;;;;;1.60;1.20;;;9.00;98.20;;;;;;6114076;23;20568;-80
2024/03/13 01:12:24;;;;;;;1.50;1.20;;;9.00;98.20;;;;;;6113426;23;20455;-82
2024/03/13 01:14:51;;;;;;;1.50;1.10;;;9.00;98.20;;;;;;6116883;23;20730;-81
2024/03/13 01:17:19;;;;;;;1.53;1.17;;;9.00;98.20;;;;;;6125560;23;20873;-81
2024/03/13 01:19:48;;;;;;;1.60;1.20;;;9.00;98.20;;;;;;6116757;23;20423;-81
2024/03/13 01:22:17;;;;;;;1.83;1.67;;;9.00;98.20;;;;;;6127800;23;20495;-82
2024/03/13 01:24:46;;;;;;;1.50;1.10;;;9.00;98.20;;;;;;6126949;23;20458;-80
2024/03/13 01:27:13;;;;;;;1.53;1.10;;;9.00;98.20;;;;;;6130085;23;20448;-80
2024/03/13 01:29:46;;;;;;;1.50;1.00;;;9.00;98.20;;;;;;6117503;23;20423;-80
2024/03/13 01:32:14;;;;;;;1.60;1.20;;;9.00;98.20;;;;;;6124797;23;20501;-79
2024/03/13 01:34:44;;;;;;;1.50;1.20;;;9.00;98.20;;;;;;6117508;23;20454;-80
2024/03/13 01:40:03;;;;;;;1.60;1.30;;;9.00;98.20;;;;;;6120747;23;20405;-80
2024/03/13 01:56:26;;;;;;;1.50;1.10;;;8.90;98.20;;;;;;6113261;23;20451;-80
2024/03/13 01:59:19;;;;;;;1.50;1.10;;;8.90;98.20;;;;;;6136021;23;20466;-81
2024/03/13 02:04:41;;;;;;;1.53;1.10;;;8.90;98.20;;;;;;6070866;23;20431;-80
2024/03/13 02:07:08;;;;;;;1.50;1.20;;;8.90;98.20;;;;;;6104547;23;20444;-80
2024/03/13 02:09:36;;;;;;;1.53;1.20;;;8.90;98.20;;;;;;6108226;23;20491;-79
2024/03/13 02:12:10;;;;;;;1.50;1.10;;;9.00;98.20;;;;;;6110336;23;20444;-80
2024/03/13 02:14:36;;;;;;;1.50;1.10;;;9.00;98.20;;;;;;6109423;23;20816;-81
2024/03/13 02:17:06;;;;;;;1.57;1.20;;;9.00;98.20;;;;;;6111054;23;20455;-84
2024/03/13 02:19:36;;;;;;;1.53;1.17;;;9.00;98.20;;;;;;6111616;23;20806;-81
2024/03/13 02:22:05;;;;;;;1.50;1.10;;;9.00;98.20;;;;;;6115428;23;20448;-81
2024/03/13 02:24:33;;;;;;;1.50;1.10;;;9.00;98.20;;;;;;6110597;23;20963;-82
2024/03/13 02:27:00;;;;;;;1.53;1.10;;;9.00;98.20;;;;;;6113681;23;20450;-81
2024/03/13 02:29:27;;;;;;;1.53;1.10;;;9.00;98.20;;;;;;6118326;23;20491;-82
2024/03/13 02:31:54;;;;;;;1.50;1.10;;;9.00;98.20;;;;;;6109529;23;20505;-81
2024/03/13 02:34:21;;;;;;;1.60;1.30;;;9.00;98.20;;;;;;6128852;23;20454;-80
2024/03/13 02:36:49;;;;;;;1.50;1.07;;;8.90;98.20;;;;;;6113808;23;20445;-81
2024/03/13 02:39:18;;;;;;;1.53;1.20;;;8.90;98.20;;;;;;6128847;23;20411;-82
2024/03/13 02:41:45;;;;;;;1.50;1.20;;;8.90;98.20;;;;;;6109840;23;20465;-81
2024/03/13 02:44:12;;;;;;;1.50;1.10;;;8.90;98.20;;;;;;6119931;23;20470;-82
2024/03/13 02:46:39;;;;;;;1.50;1.10;;;8.90;98.20;;;;;;6110460;23;20783;-82
2024/03/13 02:49:09;;;;;;;1.50;1.10;;;8.90;98.20;;;;;;6133312;23;20415;-81
2024/03/13 02:51:36;;;;;;;1.50;1.10;;;8.90;98.20;;;;;;6113609;23;20493;-79
2024/03/13 02:54:04;;;;;;;1.50;1.10;;;8.90;98.20;;;;;;6123085;23;20439;-81
2024/03/13 02:56:31;;;;;;;1.50;1.10;;;8.90;98.20;;;;;;6112848;23;20882;-82
2024/03/13 02:58:58;;;;;;;1.50;1.10;;;8.90;98.20;;;;;;6133455;23;20446;-83
2024/03/13 03:01:25;;;;;;;1.50;1.10;;;8.90;98.20;;;;;;6114467;23;20492;-81
2024/03/13 03:03:52;;;;;;;1.50;1.10;;;8.90;98.20;;;;;;6127812;23;20506;-82
2024/03/13 03:06:19;;;;;;;1.50;1.10;;;8.90;98.20;;;;;;6124926;23;20981;-80
2024/03/13 03:08:46;;;;;;;1.60;1.33;;;8.80;98.20;;;;;;6138276;23;20469;-80
2024/03/13 03:11:13;;;;;;;1.50;1.10;;;8.80;98.20;;;;;;6118480;23;20441;-79
2024/03/13 03:13:40;;;;;;;1.50;1.10;;;8.90;98.20;;;;;;6130120;23;20445;-79
2024/03/13 03:16:07;;;;;;;1.53;1.10;;;8.80;98.20;;;;;;6122635;23;20438;-79
2024/03/13 03:18:34;;;;;;;1.60;1.30;;;8.90;98.20;;;;;;6109686;23;20481;-78
2024/03/13 03:21:02;;;;;;;1.53;1.17;;;8.90;98.20;;;;;;6118604;23;20453;-78
2024/03/13 03:23:36;;;;;;;1.50;1.10;;;8.90;98.20;;;;;;6097941;23;20768;-79
2024/03/13 03:26:04;;;;;;;1.57;1.20;;;8.90;98.20;;;;;;6111884;23;20406;-80
2024/03/13 03:28:31;;;;;;;1.57;1.30;;;9.00;98.20;;;;;;6091100;23;20776;-79
2024/03/13 03:31:00;;;;;;;1.50;1.10;;;9.00;98.20;;;;;;6061297;23;20827;-79
2024/03/13 03:33:27;;;;;;;1.53;1.10;;;9.00;98.20;;;;;;6096664;23;20442;-80
2024/03/13 03:35:54;;;;;;;1.50;1.10;;;9.00;98.20;;;;;;6119409;23;20452;-79
2024/03/13 03:38:25;;;;;;;1.50;1.13;;;9.10;98.20;;;;;;6109649;23;20441;-82
2024/03/13 03:40:52;;;;;;;1.50;1.10;;;9.10;98.20;;;;;;6111301;23;20413;-80
2024/03/13 03:43:19;;;;;;;1.57;1.10;;;9.10;98.20;;;;;;6097188;23;20434;-78
2024/03/13 03:45:46;;;;;;;1.50;1.13;;;9.10;98.20;;;;;;6123214;23;20427;-79
2024/03/13 03:48:13;;;;;;;1.53;1.20;;;9.10;98.20;;;;;;6085893;23;20458;-80
2024/03/13 03:50:40;;;;;;;1.50;1.10;;;9.10;98.20;;;;;;6121686;23;20422;-80
2024/03/13 03:53:07;;;;;;;1.50;1.10;;;9.10;98.20;;;;;;6109046;23;20507;-79
2024/03/13 03:55:35;;;;;;;1.50;1.20;;;9.10;98.20;;;;;;6121810;23;20476;-80
2024/03/13 03:58:03;;;;;;;1.50;1.10;;;9.10;98.20;;;;;;6110598;23;20666;-79
2024/03/13 04:00:34;;;;;;;1.53;1.17;;;9.10;98.20;;;;;;6122533;23;20419;-79
2024/03/13 04:03:01;;;;;;;1.50;1.10;;;9.10;98.20;;;;;;6110660;23;20456;-80
2024/03/13 04:05:29;;;;;;;1.50;1.10;;;9.10;98.20;;;;;;6122853;23;20418;-82
2024/03/13 04:07:58;;;;;;;1.50;1.10;;;9.10;98.20;;;;;;6111896;23;20445;-81
2024/03/13 04:10:25;;;;;;;1.60;1.20;;;9.10;98.20;;;;;;6131444;23;20517;-81
2024/03/13 04:12:52;;;;;;;1.60;1.20;;;9.10;98.20;;;;;;6114119;23;20473;-80
2024/03/13 04:15:22;;;;;;;1.53;1.10;;;9.10;98.20;;;;;;6121473;23;20506;-80
2024/03/13 04:17:52;;;;;;;1.53;1.20;;;9.10;98.20;;;;;;6112913;23;20446;-81
2024/03/13 04:20:20;;;;;;;1.50;1.20;;;9.10;98.20;;;;;;6122459;23;20419;-80
2024/03/13 04:22:47;;;;;;;1.50;1.10;;;9.10;98.20;;;;;;6112967;23;20449;-77
2024/03/13 04:25:14;;;;;;;1.50;1.10;;;9.10;98.20;;;;;;6122304;23;20431;-80
2024/03/13 04:27:41;;;;;;;1.53;1.10;;;9.10;98.20;;;;;;6112560;23;20456;-82
2024/03/13 04:30:09;;;;;;;1.57;1.20;;;9.10;98.20;;;;;;6130110;23;20450;-79
2024/03/13 04:32:36;;;;;;;1.57;1.20;;;9.10;98.20;;;;;;6111432;23;20688;-80
2024/03/13 04:35:03;;;;;;;1.60;1.20;;;9.10;98.20;;;;;;6121602;23;20503;-80
2024/03/13 04:37:32;;;;;;;1.50;1.20;;;9.10;98.20;;;;;;6114931;23;20445;-79
2024/03/13 04:39:59;;;;;;;1.50;1.10;;;9.10;98.20;;;;;;6131254;23;20417;-81
2024/03/13 04:42:26;;;;;;;1.50;1.10;;;9.10;98.20;;;;;;6113295;23;20448;-80
2024/03/13 04:44:55;;;;;;;1.50;1.10;;;9.10;98.20;;;;;;6124050;23;20616;-82
2024/03/13 04:47:22;;;;;;;1.60;1.20;;;9.10;98.20;;;;;;6111556;23;20485;-82
2024/03/13 04:49:49;;;;;;;1.53;1.10;;;9.10;98.20;;;;;;6132527;23;20467;-82
2024/03/13 04:52:16;;;;;;;1.60;1.20;;;9.10;98.20;;;;;;6112154;23;20453;-80
2024/03/13 04:54:43;;;;;;;1.67;1.57;;;9.10;98.20;;;;;;6123160;23;20450;-81
2024/03/13 04:57:11;;;;;;;1.60;1.23;;;9.10;98.20;;;;;;6111034;23;20446;-80
2024/03/13 04:59:38;;;;;;;1.50;1.10;;;9.10;98.20;;;;;;6118919;23;20512;-79
2024/03/13 05:02:05;;;;;;;1.60;1.30;;;9.10;98.20;;;;;;6115098;23;20454;-80
2024/03/13 05:04:32;;;;;;;1.50;1.20;;;9.10;98.20;;;;;;6120518;23;20939;-82
2024/03/13 05:07:02;;;;;;;1.50;1.10;;;9.20;98.20;;;;;;6115934;23;20453;-80
2024/03/13 05:09:29;;;;;;;1.50;1.10;;;9.20;98.20;;;;;;6119452;23;20446;-80
2024/03/13 05:11:56;;;;;;;1.50;1.10;;;9.20;98.20;;;;;;6115711;23;20827;-79
2024/03/13 05:14:23;;;;;;;1.50;1.10;;;9.20;98.20;;;;;;6120044;23;20435;-81
2024/03/13 05:16:50;;;;;;;1.70;1.50;;;9.20;98.20;;;;;;6109623;23;20462;-82
2024/03/13 05:19:18;;;;;;;1.50;1.10;;;9.20;98.20;;;;;;6129154;23;20439;-81
2024/03/13 05:21:45;;;;;;;1.50;1.10;;;9.20;98.20;;;;;;6073357;23;20532;-84
2024/03/13 05:24:13;;;;;;;1.50;1.10;;;9.20;98.20;;;;;;6093898;23;20502;-80
2024/03/13 05:26:41;;;;;;;1.50;1.10;;;9.20;98.20;;;;;;6109440;23;20512;-82
2024/03/13 05:29:09;;;;;;;1.50;1.10;;;9.20;98.20;;;;;;6090455;23;20525;-83
2024/03/13 05:31:36;;;;;;;1.53;1.10;;;9.20;98.20;;;;;;6121356;23;20440;-82
2024/03/13 05:34:04;;;;;;;1.57;1.10;;;9.20;98.20;;;;;;6132251;23;20926;-82
2024/03/13 05:36:32;;;;;;;1.53;1.20;;;9.20;98.20;;;;;;6122442;23;20599;-81
2024/03/13 05:39:04;;;;;;;1.57;1.20;;;9.20;98.20;;;;;;6131937;23;20430;-84
2024/03/13 05:41:34;;;;;;;1.50;1.10;;;9.20;98.20;;;;;;6104699;23;20451;-82
2024/03/13 05:44:01;;;;;;;1.50;1.10;;;9.20;98.20;;;;;;6106701;23;20406;-84
2024/03/13 05:46:28;;;;;;;1.50;1.10;;;9.20;98.20;;;;;;6097468;23;20452;-83
2024/03/13 05:48:55;;;;;;;1.50;1.10;;;9.30;98.20;;;;;;6108397;23;20494;-83
2024/03/13 05:51:23;;;;;;;1.50;1.10;;;9.30;98.20;;;;;;6099553;23;20441;-83
2024/03/13 05:53:51;;;;;;;1.50;1.10;;;9.30;98.20;;;;;;6108790;23;20488;-84
2024/03/13 05:56:21;;;;;;;1.50;1.10;;;9.30;98.20;;;;;;6105861;23;20476;-80
2024/03/13 05:58:48;;;;;;;1.57;1.10;;;9.30;98.20;;;;;;6088952;23;20469;-80
2024/03/13 06:01:17;;;;;;;1.60;1.30;;;9.30;98.20;;;;;;6097644;23;20441;-81
2024/03/13 06:03:44;;;;;;;1.57;1.20;;;9.30;98.20;;;;;;6119559;23;20414;-81
2024/03/13 06:06:12;;;;;;;1.53;1.10;;;9.40;98.20;;;;;;6097486;23;20440;-83
2024/03/13 06:08:39;;;;;;;1.50;1.10;;;9.40;98.20;;;;;;6106134;23;20410;-82
2024/03/13 06:11:07;;;;;;;1.53;1.10;;;9.40;98.20;;;;;;6098349;23;20424;-81
2024/03/13 06:13:35;;;;;;;1.50;1.10;;;9.40;98.20;;;;;;6121752;23;20414;-83
2024/03/13 06:16:04;;;;;;;1.50;1.10;;;9.40;98.20;;;;;;6101705;23;20456;-81
2024/03/13 06:18:31;;;;;;;1.50;1.10;;;9.40;98.20;;;;;;6113297;23;20414;-81
2024/03/13 06:20:59;;;;;;;1.50;1.00;;;9.40;98.20;;;;;;6099341;23;20438;-82
2024/03/13 06:23:29;;;;;;;1.60;1.20;;;9.40;98.20;;;;;;6112362;23;20418;-82
2024/03/13 06:26:02;;;;;;;1.60;1.20;;;9.40;98.20;;;;;;6106391;23;20543;-81
2024/03/13 06:31:16;;;;;;;1.50;1.10;;;9.40;98.20;;;;;;6105211;23;20523;-82
2024/03/13 06:33:44;;;;;;;1.50;1.00;;;9.50;98.20;;;;;;6111822;23;20417;-80
2024/03/13 06:36:17;;;;;;;1.50;1.10;;;9.50;98.20;;;;;;6100357;23;20448;-79
2024/03/13 06:38:46;;;;;;;1.57;1.10;;;9.50;98.20;;;;;;6112345;23;20394;-80
2024/03/13 06:41:13;;;;;;;1.53;1.10;;;9.50;98.20;;;;;;6094059;23;20512;-80
2024/03/13 06:43:40;;;;;;;1.53;1.10;;;9.60;98.20;;;;;;6095647;23;20405;-80
2024/03/13 06:46:07;;;;;;;1.53;1.10;;;9.60;98.20;;;;;;6085864;23;20633;-80
2024/03/13 06:48:34;;;;;;;1.50;1.10;;;9.60;98.20;;;;;;6106643;23;20414;-77
2024/03/13 06:51:06;;;;;;;1.50;1.20;;;9.60;98.20;;;;;;6085457;23;20777;-80
2024/03/13 06:53:33;;;;;;;1.50;1.00;;;9.60;98.20;;;;;;6099119;23;20395;-80
2024/03/13 06:56:00;;;;;;;1.50;1.10;;;9.70;98.20;;;;;;6086244;23;20875;-81
2024/03/13 06:58:28;;;;;;;1.60;1.40;;;9.70;98.20;;;;;;6097076;23;20509;-77
2024/03/13 07:00:55;;;;;;;1.53;1.10;;;9.70;98.20;;;;;;6082860;23;20451;-79
2024/03/13 07:03:23;;;;;;;1.50;1.10;;;9.80;98.20;;;;;;6106750;23;20433;-80
2024/03/13 07:05:51;;;;;;;1.50;1.10;;;9.80;98.20;;;;;;6082311;23;20418;-80
2024/03/13 07:08:18;;;;;;;1.50;1.10;;;9.80;98.20;;;;;;6098746;23;20907;-79
2024/03/13 07:10:46;;;;;;;1.53;1.10;;;9.90;98.20;;;;;;6097237;23;20481;-78
2024/03/13 07:13:14;;;;;;;1.60;1.10;;;9.90;98.20;;;;;;6059407;23;20430;-78
2024/03/13 07:15:43;;;;;;;1.57;1.20;;;9.90;98.20;;;;;;6095670;23;20788;-78
2024/03/13 07:18:09;;;;;;;1.50;1.10;;;10.00;98.20;;;;;;6094508;23;20414;-78
2024/03/13 07:20:36;;;;;;;1.57;1.20;;;10.10;98.20;;;;;;6096113;23;20449;-80
2024/03/13 07:23:04;;;;;;;1.60;1.30;;;10.10;98.20;;;;;;6089725;23;20807;-79
2024/03/13 07:25:31;;;;;;;1.50;1.10;;;10.10;98.20;;;;;;6096491;23;20418;-80
2024/03/13 07:27:59;;;;;;;1.50;1.00;;;10.20;98.20;;;;;;6084405;23;20484;-80
2024/03/13 07:30:26;;;;;;;1.57;1.10;;;10.20;98.20;;;;;;6096952;23;20497;-80
2024/03/13 07:32:54;;;;;;;1.50;1.10;;;10.30;98.20;;;;;;6086539;23;20449;-80
2024/03/13 07:35:24;;;;;;;1.60;1.20;;;10.30;98.20;;;;;;6105375;23;20612;-80
2024/03/13 07:37:52;;;;;;;1.53;1.10;;;10.30;98.20;;;;;;6087320;23;20444;-79
2024/03/13 07:40:20;;;;;;;1.70;1.47;;;10.40;98.20;;;;;;6094626;23;20465;-80
2024/03/13 07:42:47;;;;;;;1.60;1.10;;;10.40;98.20;;;;;;6087905;23;20448;-79
2024/03/13 07:45:16;;;;;;;1.50;1.00;;;10.50;98.20;;;;;;6107587;23;20418;-79
2024/03/13 07:47:43;;;;;;;1.50;1.13;;;10.50;98.20;;;;;;6088499;23;20512;-80
2024/03/13 07:50:10;;;;;;;1.50;1.10;;;10.50;98.20;;;;;;6098511;23;20469;-80
2024/03/13 07:52:40;;;;;;;1.50;1.07;;;10.50;98.20;;;;;;6089370;23;20445;-80
2024/03/13 07:55:07;;;;;;;1.50;1.07;;;10.60;98.20;;;;;;6107831;23;20425;-79
2024/03/13 07:57:37;;;;;;;1.53;1.10;;;10.60;98.20;;;;;;6089837;23;20515;-79
2024/03/13 08:00:05;;;;;;;1.53;1.10;;;10.70;98.20;;;;;;6099575;23;20456;-80
2024/03/13 08:02:32;;;;;;;1.50;1.10;;;10.80;98.20;;;;;;6094163;23;20448;-79
2024/03/13 08:04:59;;;;;;;1.50;1.00;;;10.80;98.20;;;;;;6102253;23;20640;-78
2024/03/13 08:07:29;;;;;;;1.53;1.03;;;10.90;98.20;;;;;;6092311;23;20455;-79
2024/03/13 08:09:56;;;;;;;1.50;1.00;;;11.00;98.20;;;;;;6097682;23;20512;-78
2024/03/13 08:12:23;;;;;;;1.60;1.10;;;11.10;98.20;;;;;;6088604;23;20445;-78
2024/03/13 08:14:55;;;;;;;1.50;1.00;;;11.10;98.20;;;;;;6098431;23;20414;-78
2024/03/13 08:17:22;;;;;;;1.50;1.03;;;11.20;98.20;;;;;;6090043;23;20883;-79
2024/03/13 08:19:50;;;;;;;1.50;1.00;;;11.20;98.20;;;;;;6097493;23;20433;-79
2024/03/13 08:22:17;;;;;;;1.50;1.10;;;11.20;98.20;;;;;;6092360;23;20597;-79
2024/03/13 08:24:44;;;;;;;1.57;1.00;;;11.30;98.20;;;;;;6109191;23;20406;-78
2024/03/13 08:27:11;;;;;;;1.50;1.00;;;11.30;98.20;;;;;;6088858;23;20490;-79
2024/03/13 08:29:39;;;;;;;1.50;1.00;;;11.40;98.20;;;;;;6096057;23;20449;-78
2024/03/13 08:32:09;;;;;;;1.50;1.00;;;11.40;98.20;;;;;;6089199;23;20453;-78
2024/03/13 08:34:37;;;;;;;1.57;1.10;;;11.40;98.20;;;;;;6100420;23;20494;-78
2024/03/13 08:37:04;;;;;;;1.50;1.00;;;11.50;98.20;;;;;;6089423;23;20539;-78
2024/03/13 08:39:32;;;;;;;1.50;1.00;;;11.50;98.20;;;;;;6109067;23;20437;-78
2024/03/13 08:42:00;;;;;;;1.50;1.00;;;11.50;98.20;;;;;;6089624;23;20561;-78
2024/03/13 08:44:29;;;;;;;1.53;1.10;;;11.50;98.20;;;;;;6097787;23;20418;-77
2024/03/13 08:46:57;;;;;;;1.53;1.10;;;11.50;98.20;;;;;;6095076;23;20483;-77
2024/03/13 08:49:25;;;;;;;1.53;1.00;;;11.50;98.20;;;;;;6097886;23;20847;-78
2024/03/13 08:51:53;;;;;;;1.57;1.00;;;11.50;98.20;;;;;;6093633;23;20653;-77
2024/03/13 08:54:22;;;;;;;1.50;1.10;;;11.50;98.20;;;;;;6099359;23;20410;-77
2024/03/13 08:56:49;;;;;;;1.50;1.00;;;11.50;98.20;;;;;;6088816;23;21004;-77
2024/03/13 08:59:16;;;;;;;1.50;1.00;;;11.60;98.20;;;;;;6097830;23;20430;-77
2024/03/13 09:01:44;;;;;;;1.50;1.10;;;11.60;98.20;;;;;;6087440;23;20453;-76
2024/03/13 09:04:11;;;;;;;1.53;1.00;;;11.60;98.20;;;;;;6097772;23;20485;-77
2024/03/13 09:06:41;;;;;;;1.53;1.00;;;11.60;98.20;;;;;;6093168;23;20902;-77
2024/03/13 09:09:09;;;;;;;1.50;1.00;;;11.70;98.20;;;;;;6108516;23;20440;-78
2024/03/13 09:11:36;;;;;;;1.53;1.00;;;11.70;98.20;;;;;;6087972;23;20818;-78
2024/03/13 09:14:03;;;;;;;1.53;1.00;;;11.80;98.20;;;;;;6098870;23;20414;-77
2024/03/13 09:16:31;;;;;;;1.53;1.00;;;11.90;98.20;;;;;;6087771;23;20468;-78
2024/03/13 09:18:58;;;;;;;1.53;1.00;;;12.00;98.20;;;;;;6101516;23;20465;-77
2024/03/13 09:21:26;;;;;;;1.50;1.00;;;12.00;98.20;;;;;;6106779;23;20464;-77
2024/03/13 09:23:52;;;;;;;1.57;1.00;;;12.10;98.20;;;;;;6118675;23;20606;-78
2024/03/13 09:26:19;;;;;;;1.50;1.00;;;12.20;98.20;;;;;;6109842;23;21027;-78
2024/03/13 09:28:46;;;;;;;1.60;1.20;;;12.20;98.20;;;;;;6120774;23;20430;-79
2024/03/13 09:31:14;;;;;;;1.50;1.00;;;12.30;98.20;;;;;;6087590;23;20459;-78
2024/03/13 09:33:41;;;;;;;1.50;0.90;;;12.30;98.20;;;;;;6094649;23;20413;-78
2024/03/13 09:36:09;;;;;;;1.60;1.20;;;12.30;98.20;;;;;;6086006;23;20437;-79
2024/03/13 09:38:35;;;;;;;1.53;1.00;;;12.40;98.20;;;;;;6097286;23;20434;-77
2024/03/13 09:41:06;;;;;;;1.50;1.00;;;12.40;98.20;;;;;;6085746;23;20417;-77
2024/03/13 09:43:33;;;;;;;1.50;0.97;;;12.40;98.20;;;;;;6093818;23;20722;-79
2024/03/13 09:46:01;;;;;;;1.50;1.00;;;12.40;98.20;;;;;;6085309;23;20421;-79
2024/03/13 09:48:28;;;;;;;1.50;1.00;;;12.40;98.20;;;;;;6097839;23;20433;-79
2024/03/13 09:50:55;;;;;;;1.53;1.00;;;12.50;98.20;;;;;;6084259;23;20422;-78
2024/03/13 09:53:22;;;;;;;1.50;1.00;;;12.50;98.20;;;;;;6095802;23;20509;-80
2024/03/13 09:55:50;;;;;;;1.53;1.10;;;12.50;98.20;;;;;;6092669;23;20474;-79
2024/03/13 09:58:17;;;;;;;1.60;1.10;;;12.60;98.20;;;;;;6097103;23;20537;-79
2024/03/13 10:00:44;;;;;;;1.50;1.00;;;12.60;98.20;;;;;;6096420;23;20413;-78
2024/03/13 10:03:17;;;;;;;1.53;1.00;;;12.60;98.20;;;;;;6069116;23;20779;-79
2024/03/13 10:05:44;;;;;;;1.50;1.00;;;12.60;98.20;;;;;;6089936;23;20425;-78
2024/03/13 10:08:11;;;;;;;1.53;1.00;;;12.70;98.20;;;;;;6053980;23;20451;-81
2024/03/13 10:10:38;;;;;;;1.50;0.93;;;12.80;98.20;;;;;;6084560;23;20918;-80
2024/03/13 10:13:06;;;;;;;1.57;1.00;;;12.90;98.20;;;;;;6053908;23;20454;-79
2024/03/13 10:15:33;;;;;;;1.53;1.00;;;12.90;98.20;;;;;;6068320;23;20419;-79
2024/03/13 10:18:00;;;;;;;1.53;1.00;;;12.90;98.20;;;;;;6052855;23;20521;-80
2024/03/13 10:20:28;;;;;;;1.50;1.00;;;12.90;98.20;;;;;;6084577;23;20429;-80
2024/03/13 10:22:55;;;;;;;1.57;1.00;;;12.90;98.20;;;;;;6080928;23;20461;-79
2024/03/13 10:25:22;;;;;;;1.50;1.00;;;12.90;98.20;;;;;;6068578;23;21185;-79
2024/03/13 10:27:49;;;;;;;1.53;1.00;;;13.00;98.20;;;;;;6053571;23;20470;-79
2024/03/13 10:30:16;;;;;;;1.50;1.00;;;13.00;98.20;;;;;;6069059;23;20442;-79
2024/03/13 10:32:43;;;;;;;1.50;1.00;;;13.00;98.20;;;;;;6053103;23;20558;-79
2024/03/13 10:35:11;;;;;;;1.50;1.00;;;13.10;98.20;;;;;;6066966;23;20929;-78
2024/03/13 10:37:38;;;;;;;1.57;1.00;;;13.10;98.20;;;;;;6052428;23;20458;-81
2024/03/13 10:40:06;;;;;;;1.57;1.00;;;13.10;98.20;;;;;;6066491;23;20963;-79
2024/03/13 10:42:33;;;;;;;1.50;1.00;;;13.10;98.20;;;;;;6054080;23;20726;-78
2024/03/13 10:45:00;;;;;;;1.53;1.00;;;13.20;98.20;;;;;;6068542;23;20458;-79
2024/03/13 10:47:27;;;;;;;1.50;1.00;;;13.30;98.20;;;;;;6052626;23;20446;-78
2024/03/13 10:49:54;;;;;;;1.53;1.00;;;13.30;98.20;;;;;;6065235;23;20942;-80
2024/03/13 10:52:21;;;;;;;1.53;1.00;;;13.40;98.20;;;;;;6054846;23;21226;-78
2024/03/13 10:54:49;;;;;;;1.53;1.00;;;13.50;98.20;;;;;;6063480;23;20896;-78
2024/03/13 10:57:18;;;;;;;1.50;1.00;;;13.60;98.20;;;;;;6052359;23;20478;-79
2024/03/13 10:59:48;;;;;;;1.57;1.00;;;13.60;98.20;;;;;;6061749;23;20517;-79
2024/03/13 11:02:15;;;;;;;1.50;1.00;;;13.70;98.20;;;;;;6052370;23;20478;-78
2024/03/13 11:04:42;;;;;;;1.57;1.00;;;13.70;98.20;;;;;;6041342;23;20436;-79
2024/03/13 11:07:12;;;;;;;1.53;1.00;;;13.70;98.20;;;;;;6023974;23;20483;-79
2024/03/13 11:09:38;;;;;;;1.50;1.00;;;13.80;98.20;;;;;;6033105;23;20978;-78
2024/03/13 11:12:07;;;;;;;1.60;1.00;;;14.00;98.20;;;;;;6024075;23;20451;-78
2024/03/13 11:14:34;;;;;;;1.50;1.00;;;14.00;98.20;;;;;;6033636;23;20439;-80
2024/03/13 11:17:02;;;;;;;1.57;1.00;;;14.20;98.20;;;;;;6026478;23;20451;-79
2024/03/13 11:19:32;;;;;;;1.50;1.00;;;14.20;98.20;;;;;;6031606;23;20454;-79
2024/03/13 11:21:59;;;;;;;1.53;1.00;;;14.30;98.20;;;;;;6027580;23;20451;-78
2024/03/13 11:24:26;;;;;;;1.57;1.10;;;14.30;98.20;;;;;;6042656;23;20416;-79
2024/03/13 11:26:53;;;;;;;1.53;1.00;;;14.30;98.20;;;;;;6029928;23;20451;-79
2024/03/13 11:29:21;;;;;;;1.50;1.00;;;14.30;98.20;;;;;;6035485;23;20442;-79
2024/03/13 11:31:50;;;;;;;1.53;0.93;;;14.30;98.20;;;;;;6029710;23;20474;-80
2024/03/13 11:34:17;;;;;;;1.60;1.00;;;14.40;98.20;;;;;;6031950;23;20503;-80
2024/03/13 11:36:44;;;;;;;1.60;1.00;;;14.30;98.20;;;;;;6028428;23;20451;-79
2024/03/13 11:39:15;;;;;;;1.50;1.00;;;14.30;98.20;;;;;;6030718;23;20475;-79
2024/03/13 11:41:42;;;;;;;1.57;1.00;;;14.20;98.20;;;;;;6025589;23;20451;-78
2024/03/13 11:44:09;;;;;;;1.50;0.90;;;14.20;98.20;;;;;;6026332;23;20422;-79
2024/03/13 11:46:45;;;;;;;1.53;1.00;;;14.10;98.20;;;;;;6029308;23;21039;-79
2024/03/13 11:49:13;;;;;;;1.50;1.00;;;14.00;98.20;;;;;;6031050;23;20549;-79
2024/03/13 11:51:55;;;;;;;1.57;1.00;;;13.90;98.20;;;;;;6028054;23;21006;-80
2024/03/13 11:54:30;;;;;;;1.60;1.00;;;13.90;98.20;;;;;;6036272;23;20403;-80
2024/03/13 11:57:03;;;;;;;1.50;1.00;;;13.90;98.20;;;;;;6027386;23;20454;-79
2024/03/13 11:59:39;;;;;;;1.50;1.00;;;13.90;98.20;;;;;;6034652;23;20541;-79
2024/03/13 12:02:06;;;;;;;1.50;1.00;;;13.80;98.20;;;;;;6027521;23;20498;-80
2024/03/13 12:04:36;;;;;;;1.53;1.00;;;13.80;98.20;;;;;;6034250;23;20711;-80
2024/03/13 12:07:03;;;;;;;1.57;1.00;;;13.80;98.20;;;;;;6028697;23;20558;-81
2024/03/13 12:09:30;;;;;;;1.53;0.90;;;13.80;98.20;;;;;;6035968;23;20550;-78
2024/03/13 12:11:59;;;;;;;1.57;1.00;;;13.70;98.20;;;;;;6026143;23;20457;-79
2024/03/13 12:14:26;;;;;;;1.53;1.00;;;13.70;98.20;;;;;;6031261;23;20443;-79
2024/03/13 12:16:53;;;;;;;1.53;1.00;;;13.70;98.20;;;;;;6026195;23;20458;-79
2024/03/13 12:19:21;;;;;;;1.50;1.00;;;13.70;98.20;;;;;;6030533;23;20947;-80
2024/03/13 12:21:50;;;;;;;1.53;0.93;;;13.70;98.20;;;;;;6026891;23;20817;-79
2024/03/13 12:24:16;;;;;;;1.50;1.00;;;13.70;98.20;;;;;;6028881;23;20426;-80
2024/03/13 12:26:43;;;;;;;1.53;1.00;;;13.70;98.20;;;;;;6025002;23;20453;-79
2024/03/13 12:29:10;;;;;;;1.60;1.00;;;13.80;98.20;;;;;;6029398;23;20443;-79
2024/03/13 12:31:37;;;;;;;1.50;1.00;;;13.80;98.20;;;;;;6024164;23;20979;-81
2024/03/13 12:34:04;;;;;;;1.60;1.00;;;13.80;98.20;;;;;;6025130;23;20761;-79
2024/03/13 12:36:43;;;;;;;1.50;1.00;;;13.70;98.20;;;;;;6022311;23;20526;-82
2024/03/13 12:39:10;;;;;;;1.57;1.00;;;13.70;98.20;;;;;;6026148;23;20945;-78
2024/03/13 12:41:36;;;;;;;1.57;1.00;;;13.70;98.20;;;;;;6026864;23;20451;-81
2024/03/13 12:44:04;;;;;;;1.50;1.00;;;13.70;98.20;;;;;;6028811;23;20504;-80
2024/03/13 12:46:31;;;;;;;1.50;0.90;;;13.70;98.20;;;;;;6030164;23;20451;-81
2024/03/13 12:48:58;;;;;;;1.57;1.00;;;13.80;98.20;;;;;;6024756;23;20442;-77
2024/03/13 12:51:24;;;;;;;1.53;1.00;;;13.80;98.20;;;;;;6021997;23;20451;-79
2024/03/13 12:53:51;;;;;;;1.53;1.00;;;13.80;98.20;;;;;;6020392;23;20420;-78
2024/03/13 12:56:19;;;;;;;1.50;1.00;;;13.90;98.20;;;;;;6023247;23;20469;-78
2024/03/13 12:58:47;;;;;;;1.50;1.00;;;13.90;98.20;;;;;;6018148;23;20576;-78
2024/03/13 13:01:16;;;;;;;1.53;1.00;;;14.00;98.20;;;;;;6021343;23;20955;-78
2024/03/13 13:03:43;;;;;;;1.50;0.90;;;14.00;98.20;;;;;;6019775;23;20455;-80
2024/03/13 13:06:10;;;;;;;1.57;1.00;;;14.00;98.20;;;;;;6027811;23;20761;-79
2024/03/13 13:08:38;;;;;;;1.53;1.10;;;14.00;98.20;;;;;;6037232;23;20436;-78
2024/03/13 13:11:05;;;;;;;1.50;0.90;;;14.00;98.20;;;;;;6035216;23;20423;-79
2024/03/13 13:13:32;;;;;;;1.50;1.00;;;13.90;98.20;;;;;;6036590;23;20415;-80
2024/03/13 13:16:05;;;;;;;1.53;1.00;;;13.90;98.20;;;;;;6024714;23;20420;-78
2024/03/13 13:18:32;;;;;;;1.50;1.00;;;13.80;98.20;;;;;;6038239;23;20455;-79
2024/03/13 13:20:59;;;;;;;1.53;1.00;;;13.80;98.20;;;;;;6025068;23;20425;-78